createdAt,value
2017-06-02T00:03:27.096Z,99.9
2017-06-02T00:13:41.362Z,100
2017-06-02T00:23:55.534Z,100
2017-06-02T00:34:10.877Z,100
2017-06-02T00:44:25.330Z,100
2017-06-02T00:54:39.787Z,100
2017-06-02T01:04:54.526Z,100
2017-06-02T01:15:09.254Z,100
2017-06-02T01:25:23.230Z,100
2017-06-02T01:35:38.008Z,100
2017-06-02T01:45:52.722Z,100
2017-06-02T01:56:07.283Z,100
2017-06-02T02:06:21.744Z,100
2017-06-02T02:16:37.344Z,100
2017-06-02T02:26:51.269Z,100
2017-06-02T02:37:06.190Z,100
2017-06-02T02:47:19.973Z,100
2017-06-02T02:57:35.115Z,100
2017-06-02T03:07:49.378Z,100
2017-06-02T03:18:05.105Z,100
2017-06-02T03:28:19.544Z,100
2017-06-02T03:38:33.541Z,100
2017-06-02T03:48:47.594Z,100
2017-06-02T03:59:01.348Z,100
2017-06-02T04:09:15.900Z,100
2017-06-02T04:19:29.981Z,100
2017-06-02T04:29:45.454Z,100
2017-06-02T04:40:00.011Z,100
2017-06-02T04:50:14.812Z,100
2017-06-02T05:00:30.075Z,100
2017-06-02T05:10:44.921Z,100
2017-06-02T05:21:00.200Z,100
2017-06-02T05:31:14.331Z,100
2017-06-02T05:41:28.835Z,100
2017-06-02T05:51:43.570Z,100
2017-06-02T06:01:59.362Z,98.7
2017-06-02T06:12:14.461Z,95.6
2017-06-02T06:22:29.464Z,90
2017-06-02T06:32:43.609Z,84.6
2017-06-02T06:42:58.858Z,79.4
2017-06-02T06:53:14.455Z,74.8
2017-06-02T07:03:29.865Z,75.9
2017-06-02T07:13:43.972Z,77
2017-06-02T07:23:59.534Z,73.7
2017-06-02T07:34:14.736Z,71
2017-06-02T07:44:29.199Z,67.8
2017-06-02T07:54:43.863Z,68.5
2017-06-02T08:04:59.164Z,67.4
2017-06-02T08:15:13.261Z,65.9
2017-06-02T08:25:27.575Z,64.5
2017-06-02T08:35:43.054Z,59.5
2017-06-02T08:45:58.535Z,57.9
2017-06-02T08:56:14.086Z,57
2017-06-02T09:06:29.152Z,58
2017-06-02T09:16:43.672Z,59.1
2017-06-02T09:26:58.255Z,57.7
2017-06-02T09:37:13.241Z,56.6
2017-06-02T09:47:27.827Z,55.6
2017-06-02T09:57:42.792Z,55.4
2017-06-02T10:07:57.754Z,54.3
2017-06-02T10:18:12.918Z,53.6
2017-06-02T10:28:27.103Z,53.8
2017-06-02T10:38:41.105Z,53.7
2017-06-02T10:48:55.705Z,52.7
2017-06-02T10:59:10.002Z,51
2017-06-02T11:09:24.358Z,51.3
2017-06-02T11:19:38.707Z,50.6
2017-06-02T11:29:54.686Z,50.3
2017-06-02T11:40:09.050Z,51.3
2017-06-02T11:50:24.910Z,52
2017-06-02T12:00:40.357Z,52.7
2017-06-02T12:10:54.587Z,50.8
2017-06-02T12:21:10.584Z,50
2017-06-02T12:31:26.317Z,49.1
2017-06-02T12:41:41.896Z,48.6
2017-06-02T12:51:56.063Z,48.3
2017-06-02T13:02:11.002Z,49.4
2017-06-02T13:12:26.820Z,47.6
2017-06-02T13:22:41.860Z,46.2
2017-06-02T13:32:55.946Z,46.5
2017-06-02T13:43:09.968Z,45.1
2017-06-02T13:53:25.618Z,45.3
2017-06-02T14:03:40.609Z,44.6
2017-06-02T14:13:55.021Z,44.6
2017-06-02T14:24:09.147Z,44.6
2017-06-02T14:34:23.770Z,44.8
2017-06-02T14:44:39.750Z,45.1
2017-06-02T14:54:55.718Z,44.8
2017-06-02T15:05:10.264Z,47.3
2017-06-02T15:15:25.687Z,49
2017-06-02T15:25:39.770Z,48.4
2017-06-02T15:35:54.589Z,50
2017-06-02T15:46:10.035Z,48.8
2017-06-02T15:56:25.232Z,49.9
2017-06-02T16:06:40.189Z,49.1
2017-06-02T16:16:54.274Z,49.3
2017-06-02T16:27:08.706Z,49.2
2017-06-02T16:37:23.147Z,50
2017-06-02T16:47:37.423Z,50.8
2017-06-02T16:57:53.315Z,51
2017-06-02T17:08:08.701Z,54
2017-06-02T17:18:24.021Z,55.2
2017-06-02T17:28:38.399Z,56.4
2017-06-02T17:38:53.344Z,57.5
2017-06-02T17:49:07.470Z,58.1
2017-06-02T17:59:22.311Z,60
2017-06-02T18:09:37.832Z,60.8
2017-06-02T18:19:52.083Z,61.7
2017-06-02T18:30:06.986Z,63.7
2017-06-02T18:40:21.113Z,63.6
2017-06-02T18:50:35.218Z,64.7
2017-06-02T19:00:49.578Z,65.8
2017-06-02T19:11:03.699Z,66.8
2017-06-02T19:21:18.892Z,67
2017-06-02T19:31:34.062Z,66.9
2017-06-02T19:41:49.212Z,67.4
2017-06-02T19:52:04.629Z,66.5
2017-06-02T20:02:20.240Z,66.7
2017-06-02T20:12:34.284Z,66.7
2017-06-02T20:22:48.829Z,71.5
2017-06-02T20:33:04.141Z,76.5
2017-06-02T20:43:18.092Z,79.6
2017-06-02T20:53:33.682Z,82
2017-06-02T21:03:48.544Z,83.8
2017-06-02T21:14:03.605Z,85.4
2017-06-02T21:24:18.090Z,86.5
2017-06-02T21:34:33.840Z,88.6
2017-06-02T21:44:47.834Z,89.6
2017-06-02T21:55:02.987Z,91.4
2017-06-02T22:05:17.185Z,93.6
2017-06-02T22:15:32.261Z,95.4
2017-06-02T22:25:46.314Z,97
2017-06-02T22:36:01.718Z,98.8
2017-06-02T22:46:16.261Z,100
2017-06-02T22:56:30.329Z,100
2017-06-02T23:06:44.725Z,100
2017-06-02T23:16:59.003Z,100
2017-06-02T23:27:12.942Z,100
2017-06-02T23:37:27.189Z,100
2017-06-02T23:47:42.333Z,100
2017-06-02T23:57:57.183Z,100
